Airfield :
LOGIN :

Register | Disclaimer

   EN    FR    IT 

 










Legend :    VFR   Marginal VFR   IFR   Intensive IFR   Very Intensive IFR
Visi :
Ceiling :
>= 8 km
>= 3000ft
5 to 8 km
1000 to 3000 ft
1500m to 5 km
500 to 1000 ft
800 to 1500m
200 to 500 ft
< 800m
< 200 ft
Symbols :   Thunderstorms  Fog  Heavy snow  Heavy precipitations  Wind > 20 kt
SIGMETs :     Misc.  Thunderstorms  Icing  Turbulence  Mountain Waves  Volcanic Ashes






- Airport Elevation : 102 ft
- IATA code : KEL


EDHK - Holtenau

CURRENT METAR :
  • 031750Z AUTO VRB01KT 9999 // FEW043/// 17/12 Q1012

EXPIRED METARs :
  • 031720Z 04004KT 9999 SCT043 18/11 Q1011
  • 031650Z 05004KT 030V090 9999 FEW048 18/11 Q1012
  • 031620Z 07006KT 9999 FEW045 18/11 Q1012
  • 031550Z 07007KT 9999 FEW045 19/11 Q1012
  • 031520Z 07005KT 030V100 9999 FEW047 18/12 Q1012

TAF TAF EDHK
Valid from the 03 at 15:00 until the 03 at 19:00 UTC


031400Z 0315/0319 07009KT 9999 FEW040
BECMG 0316/0319 30005KT



MET'MAP, your aeronautical weather chart ! - Copyright ORBIFLY December 2007 - Disclaimer

ORBIFLY MET'MAP TEAM :

Programming & Development : Alexandra Zaïnal
Concept & original design : Baudouin d'Aumeries
Assistance for programming : Marc-Olivier Méhu
Technical & hardware support : Manuel Goepfert

Contact : metmap@orbifly.com




SOURCES & CREDITS :

   NOAA